Waunakee, WI

7:21 PM CST on December 20, 2014 (GMT -0600)
Westport | Change Station
CLOSE
Current Station
Personal Weather Station
Location: Waunakee, WI
Elevation: 873 ft
Nearby Weather Stations

Elev 873 ft 43.16 °N, 89.42 °W | Updated 6 seconds ago

Overcast
Overcast
29.6 °F
Feels Like 23 °F
N
6.0
Wind Variable Wind from SSE
Gusts 8.0 mph

Today
High -- | Low -- °F
--% Chance of Precip.
Yesterday
High -- | Low -- °F
Precip. -- in
7:25 AM 4:24 PM
Waning Crescent, 1% visible
Pressure 30.26 in
Visibility 7.0 miles
Clouds Few 1100 ft
Overcast 2600 ft
Windchill 23 °F
Dew Point 27 °F
Humidity 90%
Rainfall 0.00 in
Snow Depth Not available.
UV 0.0 out of 12
Pollen .10 out of 12
Air Quality Not available.
Flu Activity Not available.
METAR KMSN 210053Z 16007KT 7SM FEW011 OVC026 M01/M03 A3022 RMK AO2 SNE34 SLP245 P0000 T10111033

More Conditions Fewer Conditions

Pressure 30.26 in
Visibility 7.0 miles
Clouds Few 1100 ft
Overcast 2600 ft
Windchill 23 °F
Dew Point 27 °F
Humidity 90%
Rainfall 0.00 in
Snow Depth Not available.
UV 0.0 out of 12
Pollen .10 out of 12
Air Quality Not available.
Flu Activity Not available.
METAR KMSN 210053Z 16007KT 7SM FEW011 OVC026 M01/M03 A3022 RMK AO2 SNE34 SLP245 P0000 T10111033

More Conditions Fewer Conditions

10-Day Weather Forecast

Almanac

Astronomy

Dec. 20, 2014 Rise Set
Actual Time
Civil Twilight
Nautical Twilight
Astronomical Twilight
Moon
Length of Visible Light
Length of Day
Tomorrow will be .
, % of the Moon is Illuminated

Today's Extremes

State Highs State Lows

Community

WunderPhotos

Upload Photos

1,779,335 photos uploaded!

WunderBlogs® & News

Nearby

Air Quality

  Air Quality AQ Index Pollutant
Not available.

Snow Depth

Station Depth Elevation

Earthquake Activity

City Distance Mag. Time & Date
Minimum magnitude displayed is 2.5.

Coastal Water Temperatures

Place Temperature

Nearby Weather Stations